EBBR/BRU METAR and TAF weather

Enter ICAO airport designator
Station Type Date Time Source
EBBR METAR 2020/01/23 18:20 UTC NOAA

EBBR 231820Z 10004KT 070V130 4000 BR BKN004 02/01 Q1027 NOSIG


Station Type Date Time Source
EBBR Decoded METAR 2020/01/23 18:20 UTC NOAA

Bruxelles National, Belgium (EBBR) 50-54N 004-32E 58M
Jan 23, 2020 - 01:20 PM EST / 2020.01.23 1820 UTC
Wind: from the E (100 degrees) at 5 MPH (4 KT) (direction variable):0
Visibility: 2 mile(s):0
Sky conditions: mostly cloudy
Weather: mist
Temperature: 35 F (2 C)
Windchill: 30 F (-1 C):1
Dew Point: 33 F (1 C)
Relative Humidity: 93%
Pressure (altimeter): 30.33 in. Hg (1027 hPa)
ob: EBBR 231820Z 10004KT 070V130 4000 BR BKN004 02/01 Q1027 NOSIG
cycle: 18

Station Type Date Time Source
EBBR TAF 2020/01/23 18:42 UTC NOAA

TAF TAF EBBR 231710Z 2318/2424 VRB03KT 4000 BR BKN005 PROB40
TEMPO 2323/2403 2100 -DZ BKN003
BECMG 2410/2412 BKN018

Example: see airport list